Weather at Hickory Regional Airport

Public forecast

Using degrees Fahrenheit for public forecast. Weather courtesy of forecast.io.

Current aviation weather report (METAR) for Hickory Regional Airport

Report is more than 6 hours old.

2024/06/22 23:52 (retrieved 1 day ago)

KHKY 222352Z 00000KT 10SMSM CLR 30/19 A3002

Closest aviation forecast (TAF) to Hickory Regional Airport

Forecast is more than 12 hours old.

Closest forecast is Dobbins Air Reserve Base, 189.1 nm (350.2 km) SW.

2024/06/22 13:31 (retrieved 2 days ago)

TAF KMGE 221300Z 2213/2319 VRB05KT 9999 SCT250 QNH3014INS BECMG 2215/2216 09010KT 9999 FEW060 SCT250 QNH3000INS BECMG 2223/2224 VRB05KT 9999 FEW250 QNH2999INS BECMG 2315/2316 27009KT 9999 FEW060 SCT250 QNH2993INS TX34/2220Z TN21/2312Z LAST NO AMDS AFT 2220 NEXT 2311